sensor_id;sensor_type;location;lat;lon;timestamp;P1;durP1;ratioP1;P2;durP2;ratioP2
40675;SDS011;26359;48.750;9.314;2022-07-21T00:00:36;31.58;;;28.33;;
40675;SDS011;26359;48.750;9.314;2022-07-21T00:03:01;27.70;;;24.98;;
40675;SDS011;26359;48.750;9.314;2022-07-21T00:05:27;33.33;;;30.13;;
40675;SDS011;26359;48.750;9.314;2022-07-21T00:07:53;27.55;;;24.63;;
40675;SDS011;26359;48.750;9.314;2022-07-21T00:10:20;27.48;;;24.83;;
40675;SDS011;26359;48.750;9.314;2022-07-21T00:12:47;27.88;;;25.17;;
40675;SDS011;26359;48.750;9.314;2022-07-21T00:15:13;28.73;;;25.73;;
40675;SDS011;26359;48.750;9.314;2022-07-21T00:17:40;39.55;;;35.92;;
40675;SDS011;26359;48.750;9.314;2022-07-21T00:20:07;33.42;;;30.65;;
40675;SDS011;26359;48.750;9.314;2022-07-21T00:22:34;34.00;;;30.70;;
40675;SDS011;26359;48.750;9.314;2022-07-21T00:25:00;28.90;;;26.23;;
40675;SDS011;26359;48.750;9.314;2022-07-21T00:27:26;36.05;;;32.70;;
40675;SDS011;26359;48.750;9.314;2022-07-21T00:29:51;36.83;;;33.60;;
40675;SDS011;26359;48.750;9.314;2022-07-21T00:32:17;34.22;;;30.75;;
40675;SDS011;26359;48.750;9.314;2022-07-21T00:34:43;32.83;;;29.52;;
40675;SDS011;26359;48.750;9.314;2022-07-21T00:37:11;30.58;;;27.27;;
40675;SDS011;26359;48.750;9.314;2022-07-21T00:39:37;30.67;;;27.80;;
40675;SDS011;26359;48.750;9.314;2022-07-21T00:42:02;36.45;;;32.95;;
40675;SDS011;26359;48.750;9.314;2022-07-21T00:44:28;28.75;;;25.85;;
40675;SDS011;26359;48.750;9.314;2022-07-21T00:46:54;33.97;;;30.58;;
40675;SDS011;26359;48.750;9.314;2022-07-21T00:49:20;31.13;;;28.05;;
40675;SDS011;26359;48.750;9.314;2022-07-21T00:51:46;27.23;;;24.50;;
40675;SDS011;26359;48.750;9.314;2022-07-21T00:54:13;26.80;;;24.05;;
40675;SDS011;26359;48.750;9.314;2022-07-21T00:56:40;28.35;;;25.42;;
40675;SDS011;26359;48.750;9.314;2022-07-21T00:59:06;33.13;;;29.92;;
40675;SDS011;26359;48.750;9.314;2022-07-21T01:01:32;30.40;;;27.20;;
40675;SDS011;26359;48.750;9.314;2022-07-21T01:03:57;29.77;;;26.40;;
40675;SDS011;26359;48.750;9.314;2022-07-21T01:06:23;27.98;;;25.17;;
40675;SDS011;26359;48.750;9.314;2022-07-21T01:08:50;27.83;;;25.13;;
40675;SDS011;26359;48.750;9.314;2022-07-21T01:11:16;28.05;;;25.05;;
40675;SDS011;26359;48.750;9.314;2022-07-21T01:13:43;30.13;;;26.92;;
40675;SDS011;26359;48.750;9.314;2022-07-21T01:16:09;27.75;;;25.05;;
40675;SDS011;26359;48.750;9.314;2022-07-21T01:18:35;29.52;;;26.50;;
40675;SDS011;26359;48.750;9.314;2022-07-21T01:21:03;28.58;;;25.88;;
40675;SDS011;26359;48.750;9.314;2022-07-21T01:23:42;30.17;;;27.10;;
40675;SDS011;26359;48.750;9.314;2022-07-21T01:26:07;29.55;;;26.50;;
40675;SDS011;26359;48.750;9.314;2022-07-21T01:28:33;31.40;;;28.27;;
40675;SDS011;26359;48.750;9.314;2022-07-21T01:30:58;31.00;;;27.88;;
40675;SDS011;26359;48.750;9.314;2022-07-21T01:33:24;27.23;;;24.70;;
40675;SDS011;26359;48.750;9.314;2022-07-21T01:35:49;31.23;;;28.00;;
40675;SDS011;26359;48.750;9.314;2022-07-21T01:38:15;26.83;;;24.10;;
40675;SDS011;26359;48.750;9.314;2022-07-21T01:40:59;29.45;;;25.95;;
40675;SDS011;26359;48.750;9.314;2022-07-21T01:43:43;29.48;;;26.42;;
40675;SDS011;26359;48.750;9.314;2022-07-21T01:46:12;26.88;;;24.30;;
40675;SDS011;26359;48.750;9.314;2022-07-21T01:48:44;26.30;;;23.83;;
40675;SDS011;26359;48.750;9.314;2022-07-21T01:51:10;26.30;;;23.90;;
40675;SDS011;26359;48.750;9.314;2022-07-21T01:53:36;26.80;;;24.33;;
40675;SDS011;26359;48.750;9.314;2022-07-21T01:56:03;28.42;;;25.63;;
40675;SDS011;26359;48.750;9.314;2022-07-21T01:58:29;27.45;;;24.75;;
40675;SDS011;26359;48.750;9.314;2022-07-21T02:00:55;27.67;;;24.98;;
40675;SDS011;26359;48.750;9.314;2022-07-21T02:03:21;26.60;;;24.10;;
40675;SDS011;26359;48.750;9.314;2022-07-21T02:05:47;26.90;;;24.30;;
40675;SDS011;26359;48.750;9.314;2022-07-21T02:08:12;29.98;;;27.08;;
40675;SDS011;26359;48.750;9.314;2022-07-21T02:10:38;25.20;;;22.90;;
40675;SDS011;26359;48.750;9.314;2022-07-21T02:13:03;28.80;;;25.90;;
40675;SDS011;26359;48.750;9.314;2022-07-21T02:15:29;29.15;;;26.33;;
40675;SDS011;26359;48.750;9.314;2022-07-21T02:17:55;28.38;;;25.52;;
40675;SDS011;26359;48.750;9.314;2022-07-21T02:20:22;27.70;;;25.15;;
40675;SDS011;26359;48.750;9.314;2022-07-21T02:22:47;26.83;;;24.15;;
40675;SDS011;26359;48.750;9.314;2022-07-21T02:25:13;27.95;;;25.15;;
40675;SDS011;26359;48.750;9.314;2022-07-21T02:27:39;25.73;;;23.20;;
40675;SDS011;26359;48.750;9.314;2022-07-21T02:30:07;24.77;;;22.33;;
40675;SDS011;26359;48.750;9.314;2022-07-21T02:32:33;21.92;;;19.85;;
40675;SDS011;26359;48.750;9.314;2022-07-21T02:34:58;22.10;;;20.00;;
40675;SDS011;26359;48.750;9.314;2022-07-21T02:37:24;21.45;;;19.35;;
40675;SDS011;26359;48.750;9.314;2022-07-21T02:39:49;21.20;;;19.20;;
40675;SDS011;26359;48.750;9.314;2022-07-21T02:42:15;19.63;;;17.73;;
40675;SDS011;26359;48.750;9.314;2022-07-21T02:44:40;21.95;;;19.45;;
40675;SDS011;26359;48.750;9.314;2022-07-21T02:47:06;20.80;;;18.42;;
40675;SDS011;26359;48.750;9.314;2022-07-21T02:49:31;19.65;;;17.70;;
40675;SDS011;26359;48.750;9.314;2022-07-21T02:51:57;17.80;;;16.20;;
40675;SDS011;26359;48.750;9.314;2022-07-21T02:54:23;17.90;;;15.82;;
40675;SDS011;26359;48.750;9.314;2022-07-21T02:56:48;16.85;;;15.10;;
40675;SDS011;26359;48.750;9.314;2022-07-21T02:59:14;16.45;;;14.85;;
40675;SDS011;26359;48.750;9.314;2022-07-21T03:01:40;15.75;;;14.32;;
40675;SDS011;26359;48.750;9.314;2022-07-21T03:04:05;16.45;;;14.75;;
40675;SDS011;26359;48.750;9.314;2022-07-21T03:06:31;14.98;;;13.68;;
40675;SDS011;26359;48.750;9.314;2022-07-21T03:08:57;18.25;;;16.70;;
40675;SDS011;26359;48.750;9.314;2022-07-21T03:11:23;13.98;;;12.77;;
40675;SDS011;26359;48.750;9.314;2022-07-21T03:13:48;16.40;;;14.90;;
40675;SDS011;26359;48.750;9.314;2022-07-21T03:16:14;15.10;;;13.70;;
40675;SDS011;26359;48.750;9.314;2022-07-21T03:18:40;15.52;;;13.93;;
40675;SDS011;26359;48.750;9.314;2022-07-21T03:21:06;14.60;;;13.23;;
40675;SDS011;26359;48.750;9.314;2022-07-21T03:23:32;14.38;;;13.15;;
40675;SDS011;26359;48.750;9.314;2022-07-21T03:25:57;14.15;;;12.73;;
40675;SDS011;26359;48.750;9.314;2022-07-21T03:28:23;15.80;;;14.25;;
40675;SDS011;26359;48.750;9.314;2022-07-21T03:30:48;15.38;;;13.90;;
40675;SDS011;26359;48.750;9.314;2022-07-21T03:33:14;16.40;;;15.00;;
40675;SDS011;26359;48.750;9.314;2022-07-21T03:35:39;14.30;;;12.95;;
40675;SDS011;26359;48.750;9.314;2022-07-21T03:38:05;16.00;;;14.60;;
40675;SDS011;26359;48.750;9.314;2022-07-21T03:40:31;15.93;;;14.43;;
40675;SDS011;26359;48.750;9.314;2022-07-21T03:42:59;18.98;;;17.25;;
40675;SDS011;26359;48.750;9.314;2022-07-21T03:45:26;19.05;;;17.27;;
40675;SDS011;26359;48.750;9.314;2022-07-21T03:47:55;16.20;;;14.60;;
40675;SDS011;26359;48.750;9.314;2022-07-21T03:50:22;15.25;;;13.93;;
40675;SDS011;26359;48.750;9.314;2022-07-21T03:52:48;15.18;;;13.70;;
40675;SDS011;26359;48.750;9.314;2022-07-21T03:55:14;15.63;;;14.23;;
40675;SDS011;26359;48.750;9.314;2022-07-21T03:57:43;15.93;;;14.32;;
40675;SDS011;26359;48.750;9.314;2022-07-21T04:00:13;14.13;;;12.65;;
40675;SDS011;26359;48.750;9.314;2022-07-21T04:02:40;14.40;;;12.45;;
40675;SDS011;26359;48.750;9.314;2022-07-21T04:05:12;15.75;;;13.10;;
40675;SDS011;26359;48.750;9.314;2022-07-21T04:07:39;14.30;;;13.05;;
40675;SDS011;26359;48.750;9.314;2022-07-21T04:10:06;16.20;;;14.70;;
40675;SDS011;26359;48.750;9.314;2022-07-21T04:12:32;14.85;;;13.52;;
40675;SDS011;26359;48.750;9.314;2022-07-21T04:14:58;15.05;;;13.68;;
40675;SDS011;26359;48.750;9.314;2022-07-21T04:17:23;17.42;;;15.93;;
40675;SDS011;26359;48.750;9.314;2022-07-21T04:19:49;16.85;;;15.35;;
40675;SDS011;26359;48.750;9.314;2022-07-21T04:22:15;17.00;;;15.38;;
40675;SDS011;26359;48.750;9.314;2022-07-21T04:24:41;15.18;;;13.77;;
40675;SDS011;26359;48.750;9.314;2022-07-21T04:27:06;15.57;;;14.10;;
40675;SDS011;26359;48.750;9.314;2022-07-21T04:29:32;14.95;;;13.60;;
40675;SDS011;26359;48.750;9.314;2022-07-21T04:31:58;15.85;;;14.35;;
40675;SDS011;26359;48.750;9.314;2022-07-21T04:34:24;13.57;;;12.35;;
40675;SDS011;26359;48.750;9.314;2022-07-21T04:36:50;13.20;;;11.90;;
40675;SDS011;26359;48.750;9.314;2022-07-21T04:39:15;13.88;;;12.50;;
40675;SDS011;26359;48.750;9.314;2022-07-21T04:41:41;13.02;;;11.68;;
40675;SDS011;26359;48.750;9.314;2022-07-21T04:44:06;12.27;;;11.02;;
40675;SDS011;26359;48.750;9.314;2022-07-21T04:46:32;12.95;;;11.60;;
40675;SDS011;26359;48.750;9.314;2022-07-21T04:48:57;14.18;;;12.93;;
40675;SDS011;26359;48.750;9.314;2022-07-21T04:51:23;13.35;;;12.05;;
40675;SDS011;26359;48.750;9.314;2022-07-21T04:53:48;13.02;;;11.85;;
40675;SDS011;26359;48.750;9.314;2022-07-21T04:56:14;13.57;;;11.65;;
40675;SDS011;26359;48.750;9.314;2022-07-21T04:58:39;12.38;;;11.07;;
40675;SDS011;26359;48.750;9.314;2022-07-21T05:01:05;13.10;;;11.43;;
40675;SDS011;26359;48.750;9.314;2022-07-21T05:03:30;13.93;;;12.00;;
40675;SDS011;26359;48.750;9.314;2022-07-21T05:05:56;13.75;;;12.50;;
40675;SDS011;26359;48.750;9.314;2022-07-21T05:08:21;15.63;;;14.02;;
40675;SDS011;26359;48.750;9.314;2022-07-21T05:10:47;14.13;;;12.82;;
40675;SDS011;26359;48.750;9.314;2022-07-21T05:13:13;14.05;;;12.68;;
40675;SDS011;26359;48.750;9.314;2022-07-21T05:15:38;13.82;;;12.43;;
40675;SDS011;26359;48.750;9.314;2022-07-21T05:18:07;14.27;;;12.25;;
40675;SDS011;26359;48.750;9.314;2022-07-21T05:20:33;13.93;;;11.30;;
40675;SDS011;26359;48.750;9.314;2022-07-21T05:22:59;14.77;;;13.48;;
40675;SDS011;26359;48.750;9.314;2022-07-21T05:25:27;14.80;;;13.40;;
40675;SDS011;26359;48.750;9.314;2022-07-21T05:27:53;14.07;;;12.68;;
40675;SDS011;26359;48.750;9.314;2022-07-21T05:30:19;14.65;;;12.95;;
40675;SDS011;26359;48.750;9.314;2022-07-21T05:32:45;15.30;;;13.73;;
40675;SDS011;26359;48.750;9.314;2022-07-21T05:35:10;14.05;;;12.65;;
40675;SDS011;26359;48.750;9.314;2022-07-21T05:37:37;15.50;;;12.60;;
40675;SDS011;26359;48.750;9.314;2022-07-21T05:40:07;14.27;;;12.85;;
40675;SDS011;26359;48.750;9.314;2022-07-21T05:42:34;13.48;;;12.10;;
40675;SDS011;26359;48.750;9.314;2022-07-21T05:45:00;17.67;;;13.63;;
40675;SDS011;26359;48.750;9.314;2022-07-21T05:47:26;15.05;;;13.55;;
40675;SDS011;26359;48.750;9.314;2022-07-21T05:49:51;15.43;;;13.82;;
40675;SDS011;26359;48.750;9.314;2022-07-21T05:52:17;29.27;;;16.23;;
40675;SDS011;26359;48.750;9.314;2022-07-21T05:54:42;19.75;;;16.40;;
40675;SDS011;26359;48.750;9.314;2022-07-21T05:57:08;16.90;;;15.23;;
40675;SDS011;26359;48.750;9.314;2022-07-21T05:59:33;15.18;;;13.68;;
40675;SDS011;26359;48.750;9.314;2022-07-21T06:01:59;16.23;;;14.73;;
40675;SDS011;26359;48.750;9.314;2022-07-21T06:04:24;16.02;;;14.63;;
40675;SDS011;26359;48.750;9.314;2022-07-21T06:06:50;16.65;;;15.07;;
40675;SDS011;26359;48.750;9.314;2022-07-21T06:09:17;15.50;;;13.85;;
40675;SDS011;26359;48.750;9.314;2022-07-21T06:11:43;16.13;;;14.32;;
40675;SDS011;26359;48.750;9.314;2022-07-21T06:14:09;16.50;;;15.00;;
40675;SDS011;26359;48.750;9.314;2022-07-21T06:16:34;16.05;;;14.32;;
40675;SDS011;26359;48.750;9.314;2022-07-21T06:19:00;15.48;;;14.02;;
40675;SDS011;26359;48.750;9.314;2022-07-21T06:21:26;16.20;;;14.55;;
40675;SDS011;26359;48.750;9.314;2022-07-21T06:23:52;15.20;;;13.80;;
40675;SDS011;26359;48.750;9.314;2022-07-21T06:26:18;15.48;;;13.90;;
40675;SDS011;26359;48.750;9.314;2022-07-21T06:28:44;15.02;;;13.52;;
40675;SDS011;26359;48.750;9.314;2022-07-21T06:31:09;13.95;;;12.55;;
40675;SDS011;26359;48.750;9.314;2022-07-21T06:33:35;14.27;;;12.73;;
40675;SDS011;26359;48.750;9.314;2022-07-21T06:36:01;13.60;;;12.25;;
40675;SDS011;26359;48.750;9.314;2022-07-21T06:38:26;14.25;;;12.20;;
40675;SDS011;26359;48.750;9.314;2022-07-21T06:40:52;15.02;;;12.77;;
40675;SDS011;26359;48.750;9.314;2022-07-21T06:43:17;14.38;;;12.85;;
40675;SDS011;26359;48.750;9.314;2022-07-21T06:45:43;14.75;;;13.25;;
40675;SDS011;26359;48.750;9.314;2022-07-21T06:48:09;14.43;;;12.88;;
40675;SDS011;26359;48.750;9.314;2022-07-21T06:50:34;14.88;;;13.32;;
40675;SDS011;26359;48.750;9.314;2022-07-21T06:53:01;15.30;;;13.80;;
40675;SDS011;26359;48.750;9.314;2022-07-21T06:55:27;15.48;;;14.00;;
40675;SDS011;26359;48.750;9.314;2022-07-21T06:57:53;15.27;;;13.93;;
40675;SDS011;26359;48.750;9.314;2022-07-21T07:00:19;15.02;;;13.57;;
40675;SDS011;26359;48.750;9.314;2022-07-21T07:02:44;15.00;;;13.50;;
40675;SDS011;26359;48.750;9.314;2022-07-21T07:05:10;15.32;;;13.93;;
40675;SDS011;26359;48.750;9.314;2022-07-21T07:07:36;14.95;;;13.40;;
40675;SDS011;26359;48.750;9.314;2022-07-21T07:10:01;14.00;;;12.68;;
40675;SDS011;26359;48.750;9.314;2022-07-21T07:12:28;13.05;;;11.38;;
40675;SDS011;26359;48.750;9.314;2022-07-21T07:14:53;11.90;;;10.80;;
40675;SDS011;26359;48.750;9.314;2022-07-21T07:17:19;11.38;;;10.35;;
40675;SDS011;26359;48.750;9.314;2022-07-21T07:19:45;12.15;;;10.95;;
40675;SDS011;26359;48.750;9.314;2022-07-21T07:22:11;11.98;;;10.88;;
40675;SDS011;26359;48.750;9.314;2022-07-21T07:24:37;12.52;;;11.10;;
40675;SDS011;26359;48.750;9.314;2022-07-21T07:27:02;13.02;;;11.40;;
40675;SDS011;26359;48.750;9.314;2022-07-21T07:29:28;11.60;;;10.60;;
40675;SDS011;26359;48.750;9.314;2022-07-21T07:31:53;11.90;;;10.90;;
40675;SDS011;26359;48.750;9.314;2022-07-21T07:34:20;11.30;;;10.02;;
40675;SDS011;26359;48.750;9.314;2022-07-21T07:36:46;11.00;;;9.77;;
40675;SDS011;26359;48.750;9.314;2022-07-21T07:39:11;11.40;;;10.30;;
40675;SDS011;26359;48.750;9.314;2022-07-21T07:41:37;12.30;;;10.30;;
40675;SDS011;26359;48.750;9.314;2022-07-21T07:44:03;10.43;;;9.52;;
40675;SDS011;26359;48.750;9.314;2022-07-21T07:46:29;11.57;;;10.18;;
40675;SDS011;26359;48.750;9.314;2022-07-21T07:48:54;11.07;;;10.05;;
40675;SDS011;26359;48.750;9.314;2022-07-21T07:51:20;11.02;;;9.70;;
40675;SDS011;26359;48.750;9.314;2022-07-21T07:53:46;10.77;;;9.82;;
40675;SDS011;26359;48.750;9.314;2022-07-21T07:56:11;11.45;;;10.43;;
40675;SDS011;26359;48.750;9.314;2022-07-21T07:58:37;11.52;;;10.43;;
40675;SDS011;26359;48.750;9.314;2022-07-21T08:01:02;11.48;;;10.48;;
40675;SDS011;26359;48.750;9.314;2022-07-21T08:03:28;13.20;;;12.05;;
40675;SDS011;26359;48.750;9.314;2022-07-21T08:05:54;15.55;;;14.00;;
40675;SDS011;26359;48.750;9.314;2022-07-21T08:08:23;11.80;;;10.80;;
40675;SDS011;26359;48.750;9.314;2022-07-21T08:10:49;12.05;;;10.77;;
40675;SDS011;26359;48.750;9.314;2022-07-21T08:13:15;12.88;;;11.48;;
40675;SDS011;26359;48.750;9.314;2022-07-21T08:15:42;11.45;;;10.30;;
40675;SDS011;26359;48.750;9.314;2022-07-21T08:18:08;11.70;;;9.50;;
40675;SDS011;26359;48.750;9.314;2022-07-21T08:20:34;11.18;;;10.02;;
40675;SDS011;26359;48.750;9.314;2022-07-21T08:23:01;10.82;;;9.73;;
40675;SDS011;26359;48.750;9.314;2022-07-21T08:25:27;11.02;;;10.02;;
40675;SDS011;26359;48.750;9.314;2022-07-21T08:27:52;12.13;;;11.07;;
40675;SDS011;26359;48.750;9.314;2022-07-21T08:30:18;14.35;;;10.55;;
40675;SDS011;26359;48.750;9.314;2022-07-21T08:32:43;10.52;;;9.52;;
40675;SDS011;26359;48.750;9.314;2022-07-21T08:35:09;11.57;;;10.57;;
40675;SDS011;26359;48.750;9.314;2022-07-21T08:37:35;10.43;;;9.52;;
40675;SDS011;26359;48.750;9.314;2022-07-21T08:40:03;10.80;;;9.77;;
40675;SDS011;26359;48.750;9.314;2022-07-21T08:42:29;13.52;;;10.38;;
40675;SDS011;26359;48.750;9.314;2022-07-21T08:44:55;10.98;;;9.98;;
40675;SDS011;26359;48.750;9.314;2022-07-21T08:47:20;10.65;;;9.63;;
40675;SDS011;26359;48.750;9.314;2022-07-21T08:49:46;11.20;;;10.10;;
40675;SDS011;26359;48.750;9.314;2022-07-21T08:52:12;11.43;;;10.43;;
40675;SDS011;26359;48.750;9.314;2022-07-21T08:54:38;12.63;;;11.52;;
40675;SDS011;26359;48.750;9.314;2022-07-21T08:57:03;11.65;;;10.52;;
40675;SDS011;26359;48.750;9.314;2022-07-21T08:59:29;10.15;;;9.13;;
40675;SDS011;26359;48.750;9.314;2022-07-21T09:01:55;9.95;;;8.98;;
40675;SDS011;26359;48.750;9.314;2022-07-21T09:04:27;9.63;;;8.75;;
40675;SDS011;26359;48.750;9.314;2022-07-21T09:06:56;10.25;;;9.20;;
40675;SDS011;26359;48.750;9.314;2022-07-21T09:09:26;10.02;;;9.05;;
40675;SDS011;26359;48.750;9.314;2022-07-21T09:11:54;10.43;;;9.43;;
40675;SDS011;26359;48.750;9.314;2022-07-21T09:14:21;9.75;;;8.85;;
40675;SDS011;26359;48.750;9.314;2022-07-21T09:16:50;10.52;;;8.95;;
40675;SDS011;26359;48.750;9.314;2022-07-21T09:21:51;12.63;;;11.68;;
40675;SDS011;26359;48.750;9.314;2022-07-21T09:24:19;10.95;;;10.02;;
40675;SDS011;26359;48.750;9.314;2022-07-21T09:27:06;10.18;;;9.48;;
40675;SDS011;26359;48.750;9.314;2022-07-21T09:29:35;9.17;;;8.33;;
40675;SDS011;26359;48.750;9.314;2022-07-21T09:32:16;8.88;;;8.00;;
40675;SDS011;26359;48.750;9.314;2022-07-21T09:34:46;8.70;;;8.00;;
40675;SDS011;26359;48.750;9.314;2022-07-21T09:37:23;8.70;;;8.00;;
40675;SDS011;26359;48.750;9.314;2022-07-21T09:42:23;7.75;;;7.05;;
40675;SDS011;26359;48.750;9.314;2022-07-21T09:44:52;10.50;;;9.57;;
40675;SDS011;26359;48.750;9.314;2022-07-21T09:47:21;9.35;;;8.52;;
40675;SDS011;26359;48.750;9.314;2022-07-21T09:49:48;11.00;;;10.13;;
40675;SDS011;26359;48.750;9.314;2022-07-21T09:52:19;8.25;;;7.50;;
40675;SDS011;26359;48.750;9.314;2022-07-21T09:54:54;9.73;;;8.82;;
40675;SDS011;26359;48.750;9.314;2022-07-21T09:57:24;8.80;;;8.00;;
40675;SDS011;26359;48.750;9.314;2022-07-21T09:59:50;8.70;;;7.80;;
40675;SDS011;26359;48.750;9.314;2022-07-21T10:02:18;8.15;;;7.35;;
40675;SDS011;26359;48.750;9.314;2022-07-21T10:04:56;10.45;;;9.65;;
40675;SDS011;26359;48.750;9.314;2022-07-21T10:07:24;11.68;;;10.60;;
40675;SDS011;26359;48.750;9.314;2022-07-21T10:09:50;7.72;;;7.03;;
40675;SDS011;26359;48.750;9.314;2022-07-21T10:12:16;8.55;;;7.70;;
40675;SDS011;26359;48.750;9.314;2022-07-21T10:14:43;8.57;;;7.78;;
40675;SDS011;26359;48.750;9.314;2022-07-21T10:17:09;7.55;;;6.95;;
40675;SDS011;26359;48.750;9.314;2022-07-21T10:19:37;7.80;;;7.20;;
40675;SDS011;26359;48.750;9.314;2022-07-21T10:22:30;9.00;;;8.13;;
40675;SDS011;26359;48.750;9.314;2022-07-21T10:25:16;8.70;;;7.90;;
40675;SDS011;26359;48.750;9.314;2022-07-21T10:30:46;8.45;;;7.57;;
40675;SDS011;26359;48.750;9.314;2022-07-21T10:33:14;8.13;;;7.40;;
40675;SDS011;26359;48.750;9.314;2022-07-21T10:35:45;8.20;;;7.55;;
40675;SDS011;26359;48.750;9.314;2022-07-21T10:38:29;8.13;;;7.38;;
40675;SDS011;26359;48.750;9.314;2022-07-21T10:40:57;7.65;;;6.97;;
40675;SDS011;26359;48.750;9.314;2022-07-21T10:45:50;8.65;;;7.75;;
40675;SDS011;26359;48.750;9.314;2022-07-21T10:51:07;10.10;;;9.25;;
40675;SDS011;26359;48.750;9.314;2022-07-21T10:53:38;10.02;;;9.23;;
40675;SDS011;26359;48.750;9.314;2022-07-21T10:56:05;8.65;;;7.88;;
40675;SDS011;26359;48.750;9.314;2022-07-21T10:58:32;8.18;;;7.35;;
40675;SDS011;26359;48.750;9.314;2022-07-21T11:03:40;10.13;;;9.35;;
40675;SDS011;26359;48.750;9.314;2022-07-21T11:11:25;7.50;;;6.90;;
40675;SDS011;26359;48.750;9.314;2022-07-21T11:21:52;10.00;;;9.30;;
40675;SDS011;26359;48.750;9.314;2022-07-21T11:24:21;10.27;;;9.57;;
40675;SDS011;26359;48.750;9.314;2022-07-21T11:29:33;9.45;;;8.73;;
40675;SDS011;26359;48.750;9.314;2022-07-21T11:32:00;8.55;;;7.78;;
40675;SDS011;26359;48.750;9.314;2022-07-21T11:34:37;9.38;;;8.65;;
40675;SDS011;26359;48.750;9.314;2022-07-21T11:37:04;8.10;;;7.22;;
40675;SDS011;26359;48.750;9.314;2022-07-21T11:39:29;9.80;;;9.05;;
40675;SDS011;26359;48.750;9.314;2022-07-21T11:42:00;10.40;;;9.45;;
40675;SDS011;26359;48.750;9.314;2022-07-21T11:44:27;8.85;;;8.13;;
40675;SDS011;26359;48.750;9.314;2022-07-21T11:46:54;8.13;;;7.47;;
40675;SDS011;26359;48.750;9.314;2022-07-21T11:49:21;7.82;;;7.25;;
40675;SDS011;26359;48.750;9.314;2022-07-21T11:52:10;8.00;;;7.20;;
40675;SDS011;26359;48.750;9.314;2022-07-21T11:54:42;8.95;;;8.30;;
40675;SDS011;26359;48.750;9.314;2022-07-21T11:57:09;8.40;;;7.70;;
40675;SDS011;26359;48.750;9.314;2022-07-21T11:59:36;10.73;;;9.82;;
40675;SDS011;26359;48.750;9.314;2022-07-21T12:02:10;7.85;;;7.25;;
40675;SDS011;26359;48.750;9.314;2022-07-21T12:04:38;7.65;;;7.05;;
40675;SDS011;26359;48.750;9.314;2022-07-21T12:07:14;9.43;;;8.43;;
40675;SDS011;26359;48.750;9.314;2022-07-21T12:09:49;9.07;;;8.38;;
40675;SDS011;26359;48.750;9.314;2022-07-21T12:14:58;11.27;;;7.38;;
40675;SDS011;26359;48.750;9.314;2022-07-21T12:17:41;10.45;;;9.65;;
40675;SDS011;26359;48.750;9.314;2022-07-21T12:20:35;9.20;;;8.40;;
40675;SDS011;26359;48.750;9.314;2022-07-21T12:23:19;9.30;;;8.40;;
40675;SDS011;26359;48.750;9.314;2022-07-21T12:25:53;9.25;;;8.40;;
40675;SDS011;26359;48.750;9.314;2022-07-21T12:28:20;8.48;;;7.88;;
40675;SDS011;26359;48.750;9.314;2022-07-21T12:30:46;10.35;;;9.50;;
40675;SDS011;26359;48.750;9.314;2022-07-21T12:33:34;9.02;;;7.72;;
40675;SDS011;26359;48.750;9.314;2022-07-21T12:36:04;12.57;;;11.55;;
40675;SDS011;26359;48.750;9.314;2022-07-21T12:38:44;13.05;;;12.00;;
40675;SDS011;26359;48.750;9.314;2022-07-21T12:41:20;12.48;;;11.27;;
40675;SDS011;26359;48.750;9.314;2022-07-21T12:43:57;14.50;;;13.43;;
40675;SDS011;26359;48.750;9.314;2022-07-21T12:46:33;11.65;;;10.65;;
40675;SDS011;26359;48.750;9.314;2022-07-21T12:49:07;8.77;;;8.07;;
40675;SDS011;26359;48.750;9.314;2022-07-21T12:51:34;14.38;;;13.25;;
40675;SDS011;26359;48.750;9.314;2022-07-21T12:54:00;11.07;;;9.98;;
40675;SDS011;26359;48.750;9.314;2022-07-21T12:56:27;13.60;;;12.60;;
40675;SDS011;26359;48.750;9.314;2022-07-21T12:58:55;10.43;;;9.73;;
40675;SDS011;26359;48.750;9.314;2022-07-21T13:01:22;12.40;;;11.50;;
40675;SDS011;26359;48.750;9.314;2022-07-21T13:03:49;10.57;;;9.80;;
40675;SDS011;26359;48.750;9.314;2022-07-21T13:06:14;9.95;;;8.95;;
40675;SDS011;26359;48.750;9.314;2022-07-21T13:08:42;12.90;;;11.68;;
40675;SDS011;26359;48.750;9.314;2022-07-21T13:11:09;13.90;;;12.80;;
40675;SDS011;26359;48.750;9.314;2022-07-21T13:13:37;16.27;;;14.90;;
40675;SDS011;26359;48.750;9.314;2022-07-21T13:16:03;13.40;;;12.48;;
40675;SDS011;26359;48.750;9.314;2022-07-21T13:18:28;16.90;;;15.50;;
40675;SDS011;26359;48.750;9.314;2022-07-21T13:20:54;16.58;;;14.93;;
40675;SDS011;26359;48.750;9.314;2022-07-21T13:23:20;15.45;;;14.10;;
40675;SDS011;26359;48.750;9.314;2022-07-21T13:25:46;17.13;;;15.68;;
40675;SDS011;26359;48.750;9.314;2022-07-21T13:28:13;15.98;;;14.45;;
40675;SDS011;26359;48.750;9.314;2022-07-21T13:30:39;19.45;;;17.75;;
40675;SDS011;26359;48.750;9.314;2022-07-21T13:33:04;13.68;;;12.57;;
40675;SDS011;26359;48.750;9.314;2022-07-21T13:35:30;16.25;;;15.00;;
40675;SDS011;26359;48.750;9.314;2022-07-21T13:37:56;16.30;;;14.88;;
40675;SDS011;26359;48.750;9.314;2022-07-21T13:40:23;12.48;;;11.48;;
40675;SDS011;26359;48.750;9.314;2022-07-21T13:42:49;9.93;;;9.07;;
40675;SDS011;26359;48.750;9.314;2022-07-21T13:45:15;11.52;;;10.55;;
40675;SDS011;26359;48.750;9.314;2022-07-21T13:47:41;12.65;;;11.73;;
40675;SDS011;26359;48.750;9.314;2022-07-21T13:50:09;11.43;;;10.55;;
40675;SDS011;26359;48.750;9.314;2022-07-21T13:52:35;12.02;;;10.95;;
40675;SDS011;26359;48.750;9.314;2022-07-21T13:55:02;12.55;;;11.55;;
40675;SDS011;26359;48.750;9.314;2022-07-21T13:57:28;13.77;;;12.63;;
40675;SDS011;26359;48.750;9.314;2022-07-21T13:59:54;13.77;;;12.30;;
40675;SDS011;26359;48.750;9.314;2022-07-21T14:02:19;19.40;;;17.95;;
40675;SDS011;26359;48.750;9.314;2022-07-21T14:04:45;10.93;;;10.07;;
40675;SDS011;26359;48.750;9.314;2022-07-21T14:07:10;10.75;;;9.77;;
40675;SDS011;26359;48.750;9.314;2022-07-21T14:09:38;9.68;;;8.77;;
40675;SDS011;26359;48.750;9.314;2022-07-21T14:12:05;9.20;;;8.30;;
40675;SDS011;26359;48.750;9.314;2022-07-21T14:14:31;9.40;;;8.50;;
40675;SDS011;26359;48.750;9.314;2022-07-21T14:16:56;9.57;;;8.77;;
40675;SDS011;26359;48.750;9.314;2022-07-21T14:19:22;9.93;;;8.93;;
40675;SDS011;26359;48.750;9.314;2022-07-21T14:21:48;10.90;;;9.90;;
40675;SDS011;26359;48.750;9.314;2022-07-21T14:24:14;9.23;;;8.32;;
40675;SDS011;26359;48.750;9.314;2022-07-21T14:26:58;9.38;;;8.60;;
40675;SDS011;26359;48.750;9.314;2022-07-21T14:29:23;8.77;;;7.95;;
40675;SDS011;26359;48.750;9.314;2022-07-21T14:31:49;8.45;;;7.65;;
40675;SDS011;26359;48.750;9.314;2022-07-21T14:34:15;8.32;;;7.50;;
40675;SDS011;26359;48.750;9.314;2022-07-21T14:36:41;8.13;;;7.45;;
40675;SDS011;26359;48.750;9.314;2022-07-21T14:39:07;7.97;;;7.28;;
40675;SDS011;26359;48.750;9.314;2022-07-21T14:41:32;9.30;;;8.50;;
40675;SDS011;26359;48.750;9.314;2022-07-21T14:43:58;9.38;;;8.30;;
40675;SDS011;26359;48.750;9.314;2022-07-21T14:46:24;9.55;;;7.63;;
40675;SDS011;26359;48.750;9.314;2022-07-21T14:48:50;9.18;;;8.27;;
40675;SDS011;26359;48.750;9.314;2022-07-21T14:51:15;8.07;;;7.35;;
40675;SDS011;26359;48.750;9.314;2022-07-21T14:53:41;8.15;;;7.55;;
40675;SDS011;26359;48.750;9.314;2022-07-21T14:56:08;9.70;;;8.55;;
40675;SDS011;26359;48.750;9.314;2022-07-21T14:58:33;7.93;;;7.22;;
40675;SDS011;26359;48.750;9.314;2022-07-21T15:00:59;7.18;;;6.57;;
40675;SDS011;26359;48.750;9.314;2022-07-21T15:03:24;7.95;;;7.05;;